Time;durP1;ratioP1;P1;durP2;ratioP2;P2;SDS_P1;SDS_P2;PMS_P1;PMS_P2;Temp;Humidity;BMP_temperature;BMP_pressure;BME280_temperature;BME280_humidity;BME280_pressure;Samples;Min_cycle;Max_cycle;Signal;HPM_P1;HPM_P2
2023/07/02 00:00:32;;;;;;;4.63;3.97;;;15.40;99.90;;;;;;4998029;28;20551;-59
2023/07/02 00:03:02;;;;;;;4.30;3.90;;;15.40;99.90;;;;;;4997866;28;20501;-60
2023/07/02 00:05:31;;;;;;;5.83;4.03;;;15.40;99.90;;;;;;4999217;28;20551;-59
2023/07/02 00:07:59;;;;;;;4.10;3.73;;;15.30;99.90;;;;;;4997699;28;20473;-59
2023/07/02 00:10:28;;;;;;;4.57;4.17;;;15.30;99.90;;;;;;4992523;28;21113;-60
2023/07/02 00:12:56;;;;;;;5.20;3.73;;;15.30;99.90;;;;;;4994426;28;20495;-60
2023/07/02 00:15:24;;;;;;;4.13;3.73;;;15.30;99.90;;;;;;4994187;28;22596;-61
2023/07/02 00:17:52;;;;;;;4.40;3.63;;;15.30;99.90;;;;;;4994475;28;20482;-60
2023/07/02 00:20:20;;;;;;;4.50;4.03;;;15.30;99.90;;;;;;4993988;28;20476;-60
2023/07/02 00:22:49;;;;;;;4.93;4.43;;;15.30;99.90;;;;;;4993586;28;20501;-62
2023/07/02 00:25:17;;;;;;;4.43;4.10;;;15.30;99.90;;;;;;4993613;28;20631;-59
2023/07/02 00:27:47;;;;;;;5.20;4.43;;;15.30;99.90;;;;;;4992458;28;21039;-59
2023/07/02 00:30:15;;;;;;;4.97;4.47;;;15.30;99.90;;;;;;4994755;28;20467;-60
2023/07/02 00:32:43;;;;;;;6.33;4.20;;;15.30;99.90;;;;;;4989709;28;20570;-59
2023/07/02 00:35:12;;;;;;;4.83;4.40;;;15.30;99.90;;;;;;4987990;28;20477;-61
2023/07/02 00:37:40;;;;;;;4.40;4.00;;;15.30;99.90;;;;;;4994029;28;20562;-59
2023/07/02 00:40:09;;;;;;;4.87;4.20;;;15.30;99.90;;;;;;4992196;28;20521;-60
2023/07/02 00:42:37;;;;;;;5.00;4.30;;;15.40;99.90;;;;;;4991653;28;20591;-62
2023/07/02 00:45:08;;;;;;;4.67;3.70;;;15.40;99.90;;;;;;4992967;28;20505;-60
2023/07/02 00:47:36;;;;;;;4.27;3.87;;;15.40;99.90;;;;;;4994155;28;20949;-59
2023/07/02 00:50:05;;;;;;;6.03;4.03;;;15.40;99.90;;;;;;4994622;28;20893;-61
2023/07/02 00:52:33;;;;;;;4.70;4.30;;;15.40;99.90;;;;;;4988271;28;21079;-59
2023/07/02 00:55:01;;;;;;;4.97;4.20;;;15.50;99.90;;;;;;4992366;28;20599;-60
2023/07/02 00:57:30;;;;;;;6.70;4.80;;;15.50;99.90;;;;;;4992696;28;20563;-60
2023/07/02 01:00:00;;;;;;;5.30;4.10;;;15.50;99.90;;;;;;4993015;28;20861;-59
2023/07/02 01:02:30;;;;;;;4.20;3.80;;;15.50;99.90;;;;;;4992661;28;20550;-61
2023/07/02 01:04:59;;;;;;;4.20;4.00;;;15.50;99.90;;;;;;4993610;28;20955;-58
2023/07/02 01:07:28;;;;;;;5.10;4.27;;;15.50;99.90;;;;;;4991878;28;20495;-59
2023/07/02 01:09:56;;;;;;;5.37;4.87;;;15.50;99.90;;;;;;4991844;28;20472;-58
2023/07/02 01:12:25;;;;;;;5.63;4.47;;;15.50;99.90;;;;;;4992517;28;20496;-59
2023/07/02 01:14:57;;;;;;;6.27;4.37;;;15.50;99.90;;;;;;4990857;28;20468;-61
2023/07/02 01:17:28;;;;;;;5.50;4.00;;;15.50;99.90;;;;;;4990810;28;20555;-59
2023/07/02 01:19:59;;;;;;;4.93;4.20;;;15.50;99.90;;;;;;4994459;28;20476;-60
2023/07/02 01:22:30;;;;;;;4.13;3.73;;;15.50;99.90;;;;;;4991178;28;20884;-59
2023/07/02 01:24:58;;;;;;;4.87;4.37;;;15.50;99.90;;;;;;4990830;28;20852;-62
2023/07/02 01:27:29;;;;;;;4.40;4.00;;;15.50;99.90;;;;;;4993693;28;20480;-61
2023/07/02 01:29:57;;;;;;;5.30;4.60;;;15.50;99.90;;;;;;4991992;28;20601;-61
2023/07/02 01:32:25;;;;;;;5.10;4.30;;;15.50;99.90;;;;;;4992810;28;20583;-59
2023/07/02 01:34:53;;;;;;;6.00;5.07;;;15.40;99.90;;;;;;4996667;28;20475;-60
2023/07/02 01:37:23;;;;;;;5.83;4.30;;;15.40;99.90;;;;;;4996721;28;20481;-59
2023/07/02 01:39:51;;;;;;;5.23;4.73;;;15.40;99.90;;;;;;4998356;28;20575;-59
2023/07/02 01:42:20;;;;;;;6.03;4.77;;;15.40;99.90;;;;;;4994684;28;20482;-60
2023/07/02 01:44:51;;;;;;;6.03;4.93;;;15.40;99.90;;;;;;4999107;28;20496;-59
2023/07/02 01:47:19;;;;;;;4.60;4.20;;;15.50;99.90;;;;;;4999331;28;20476;-60
2023/07/02 01:49:48;;;;;;;5.07;4.33;;;15.50;99.90;;;;;;4999334;28;20539;-60
2023/07/02 01:52:16;;;;;;;5.73;4.23;;;15.50;99.90;;;;;;4994823;28;20516;-59
2023/07/02 01:54:46;;;;;;;6.07;4.50;;;15.50;99.90;;;;;;4995831;28;20464;-60
2023/07/02 01:57:14;;;;;;;6.90;4.80;;;15.50;99.90;;;;;;4998554;28;21090;-60
2023/07/02 01:59:42;;;;;;;4.20;3.80;;;15.50;99.90;;;;;;4995857;28;20480;-60
2023/07/02 02:02:11;;;;;;;5.90;4.37;;;15.50;99.90;;;;;;5000339;28;20508;-60
2023/07/02 02:04:39;;;;;;;4.83;4.33;;;15.50;99.90;;;;;;4999421;28;21001;-60
2023/07/02 02:07:07;;;;;;;4.50;4.10;;;15.50;99.90;;;;;;4998662;28;20479;-62
2023/07/02 02:09:35;;;;;;;4.77;4.37;;;15.50;99.90;;;;;;4996825;28;20559;-60
2023/07/02 02:12:05;;;;;;;6.10;4.77;;;15.50;99.90;;;;;;4989217;28;20483;-59
2023/07/02 02:14:33;;;;;;;5.67;4.73;;;15.50;99.90;;;;;;4991728;28;20920;-62
2023/07/02 02:17:01;;;;;;;6.73;4.87;;;15.50;99.90;;;;;;4989006;28;20891;-58
2023/07/02 02:19:29;;;;;;;5.53;4.90;;;15.40;99.90;;;;;;4992474;28;20471;-59
2023/07/02 02:21:57;;;;;;;5.93;5.40;;;15.40;99.90;;;;;;4991273;28;20487;-61
2023/07/02 02:24:25;;;;;;;5.17;4.73;;;15.40;99.90;;;;;;4986260;28;20623;-61
2023/07/02 02:26:53;;;;;;;5.37;4.87;;;15.40;99.90;;;;;;4992621;28;20496;-59
2023/07/02 02:29:22;;;;;;;7.10;5.50;;;15.30;99.90;;;;;;4993491;28;20481;-60
2023/07/02 02:31:50;;;;;;;5.50;5.00;;;15.30;99.90;;;;;;4985718;28;20592;-61
2023/07/02 02:34:18;;;;;;;5.40;4.90;;;15.30;99.90;;;;;;4990595;28;21003;-60
2023/07/02 02:36:47;;;;;;;8.87;5.77;;;15.30;99.90;;;;;;4987937;28;21024;-63
2023/07/02 02:39:15;;;;;;;6.10;4.73;;;15.30;99.90;;;;;;4992939;28;20540;-60
2023/07/02 02:41:43;;;;;;;5.37;4.87;;;15.30;99.90;;;;;;4991858;28;20512;-61
2023/07/02 02:44:11;;;;;;;5.73;4.80;;;15.30;99.90;;;;;;4994378;28;20568;-60
2023/07/02 02:46:40;;;;;;;7.80;5.50;;;15.30;99.90;;;;;;4990651;28;20558;-59
2023/07/02 02:49:08;;;;;;;7.07;5.70;;;15.30;99.90;;;;;;4990575;28;20471;-61
2023/07/02 02:51:36;;;;;;;5.80;5.30;;;15.30;99.90;;;;;;4988507;28;20507;-61
2023/07/02 02:54:04;;;;;;;7.87;5.30;;;15.20;99.90;;;;;;4990698;28;20499;-58
2023/07/02 02:56:32;;;;;;;4.63;4.20;;;15.20;99.90;;;;;;4991776;28;20567;-59
2023/07/02 02:59:01;;;;;;;6.07;5.40;;;15.20;99.90;;;;;;4991771;28;20595;-60
2023/07/02 03:01:30;;;;;;;6.07;5.57;;;15.20;99.90;;;;;;4990994;28;20496;-59
2023/07/02 03:04:00;;;;;;;5.83;5.33;;;15.20;99.90;;;;;;4988101;28;20513;-59
2023/07/02 03:06:28;;;;;;;8.60;5.30;;;15.20;99.90;;;;;;4991232;28;20475;-57
2023/07/02 03:08:56;;;;;;;6.10;5.60;;;15.20;99.90;;;;;;4990523;28;20483;-59
2023/07/02 03:11:24;;;;;;;8.40;5.43;;;15.20;99.90;;;;;;4990659;28;20583;-59
2023/07/02 03:13:52;;;;;;;6.90;5.70;;;15.10;99.90;;;;;;4985696;28;20492;-61
2023/07/02 03:16:21;;;;;;;5.63;5.13;;;15.10;99.90;;;;;;4992769;28;20914;-61
2023/07/02 03:18:49;;;;;;;9.70;5.93;;;15.10;99.90;;;;;;4990678;28;20472;-59
2023/07/02 03:21:19;;;;;;;5.77;5.17;;;15.10;99.90;;;;;;4992125;28;21006;-59
2023/07/02 03:23:47;;;;;;;6.23;5.63;;;15.10;99.90;;;;;;4992160;28;20913;-62
2023/07/02 03:26:15;;;;;;;6.90;5.50;;;15.10;99.90;;;;;;4993436;28;20495;-59
2023/07/02 03:28:43;;;;;;;6.00;5.40;;;15.10;99.90;;;;;;4992034;28;21367;-58
2023/07/02 03:31:10;;;;;;;8.00;5.30;;;15.00;99.90;;;;;;4996076;28;21041;-60
2023/07/02 03:33:39;;;;;;;6.00;5.50;;;15.00;99.90;;;;;;4986931;28;20496;-60
2023/07/02 03:36:07;;;;;;;5.70;4.90;;;15.00;99.90;;;;;;4991468;28;21168;-60
2023/07/02 03:38:37;;;;;;;5.90;5.40;;;15.00;99.90;;;;;;4995244;28;20563;-59
2023/07/02 03:41:05;;;;;;;6.00;5.50;;;15.00;99.90;;;;;;5000149;28;20481;-62
2023/07/02 03:43:32;;;;;;;5.73;5.10;;;15.10;99.90;;;;;;5000719;28;20484;-60
2023/07/02 03:46:00;;;;;;;6.60;5.50;;;15.10;99.90;;;;;;4997687;28;20606;-61
2023/07/02 03:48:28;;;;;;;6.07;5.30;;;15.10;99.90;;;;;;5002063;28;20477;-60
2023/07/02 03:50:56;;;;;;;7.57;6.10;;;15.10;99.90;;;;;;4995275;28;20541;-59
2023/07/02 03:53:24;;;;;;;6.13;5.07;;;15.10;99.90;;;;;;4994869;28;21073;-60
2023/07/02 03:55:54;;;;;;;6.70;6.00;;;15.10;99.90;;;;;;4989670;28;21709;-61
2023/07/02 03:58:22;;;;;;;6.70;5.53;;;15.10;99.90;;;;;;4996452;28;20469;-59
2023/07/02 04:00:50;;;;;;;5.97;5.30;;;15.10;99.90;;;;;;4994436;28;21250;-59
2023/07/02 04:03:18;;;;;;;8.90;5.63;;;15.10;99.90;;;;;;4997335;28;20491;-59
2023/07/02 04:05:47;;;;;;;5.73;5.23;;;15.10;99.90;;;;;;4994042;28;20495;-59
2023/07/02 04:08:16;;;;;;;8.40;5.53;;;15.10;99.90;;;;;;4992453;28;20549;-60
2023/07/02 04:10:44;;;;;;;8.63;6.30;;;15.10;99.90;;;;;;4991177;28;20890;-58
2023/07/02 04:13:14;;;;;;;9.77;5.50;;;15.10;99.90;;;;;;4987618;28;20498;-59
2023/07/02 04:15:42;;;;;;;6.37;5.50;;;15.10;99.90;;;;;;4978936;28;21489;-58
2023/07/02 04:18:10;;;;;;;9.07;5.40;;;15.10;99.90;;;;;;4993977;28;20572;-60
2023/07/02 04:20:38;;;;;;;7.57;5.53;;;15.20;99.90;;;;;;4991626;28;20472;-59
2023/07/02 04:23:06;;;;;;;8.53;4.70;;;15.20;99.90;;;;;;4991881;28;20525;-59
2023/07/02 04:25:34;;;;;;;8.93;6.30;;;15.30;99.90;;;;;;4993347;28;21094;-59
2023/07/02 04:28:24;;;;;;;6.40;5.70;;;15.30;99.90;;;;;;4989866;28;20833;-58
2023/07/02 04:30:52;;;;;;;7.53;5.70;;;15.30;99.90;;;;;;4991666;28;20562;-59
2023/07/02 04:33:21;;;;;;;7.50;5.30;;;15.30;99.90;;;;;;4989011;28;21013;-60
2023/07/02 04:35:49;;;;;;;6.80;6.03;;;15.30;99.90;;;;;;4987802;28;20476;-60
2023/07/02 04:38:17;;;;;;;7.40;5.70;;;15.30;99.90;;;;;;4992076;28;20571;-60
2023/07/02 04:40:45;;;;;;;9.23;5.97;;;15.30;99.90;;;;;;4994644;28;20989;-59
2023/07/02 04:43:18;;;;;;;7.67;6.30;;;15.20;99.90;;;;;;4992260;28;20499;-60
2023/07/02 04:45:48;;;;;;;9.83;5.90;;;15.20;99.90;;;;;;4989015;28;20503;-59
2023/07/02 04:48:16;;;;;;;8.77;5.60;;;15.30;99.90;;;;;;4996383;28;20560;-61
2023/07/02 04:50:44;;;;;;;8.00;5.60;;;15.30;99.90;;;;;;4993252;28;20465;-59
2023/07/02 04:53:13;;;;;;;10.77;6.50;;;15.30;99.90;;;;;;4994546;28;20496;-62
2023/07/02 04:55:40;;;;;;;10.03;5.90;;;15.30;99.90;;;;;;4999175;28;20464;-58
2023/07/02 04:58:09;;;;;;;7.77;6.30;;;15.40;99.90;;;;;;4993660;28;20468;-59
2023/07/02 05:00:37;;;;;;;11.67;6.80;;;15.40;99.90;;;;;;4988051;28;21252;-60
2023/07/02 05:03:06;;;;;;;10.60;6.80;;;15.40;99.90;;;;;;4988702;28;21550;-61
2023/07/02 05:05:34;;;;;;;9.63;6.07;;;15.50;99.90;;;;;;4987036;28;20599;-61
2023/07/02 05:08:04;;;;;;;11.07;6.80;;;15.50;99.90;;;;;;4986123;28;20645;-60
2023/07/02 05:10:32;;;;;;;9.30;6.10;;;15.50;99.90;;;;;;4986262;28;21016;-60
2023/07/02 05:13:00;;;;;;;9.57;6.30;;;15.50;99.90;;;;;;4994623;28;20504;-60
2023/07/02 05:15:28;;;;;;;11.90;6.70;;;15.60;99.90;;;;;;4991908;28;20938;-63
2023/07/02 05:17:56;;;;;;;9.80;6.43;;;15.60;99.90;;;;;;4995813;28;20565;-62
2023/07/02 05:20:26;;;;;;;9.60;6.43;;;15.60;99.90;;;;;;4981876;28;21308;-61
2023/07/02 05:22:54;;;;;;;12.10;6.70;;;15.70;99.90;;;;;;4994063;28;20619;-60
2023/07/02 05:25:22;;;;;;;9.73;6.13;;;15.70;99.90;;;;;;4998069;28;20488;-61
2023/07/02 05:27:50;;;;;;;12.93;6.90;;;15.70;99.90;;;;;;4998158;28;20560;-62
2023/07/02 05:30:18;;;;;;;12.57;6.60;;;15.70;99.90;;;;;;4992101;28;20508;-60
2023/07/02 05:32:46;;;;;;;12.57;8.37;;;15.80;99.90;;;;;;4987223;28;20596;-59
2023/07/02 05:35:14;;;;;;;9.23;6.33;;;15.80;99.90;;;;;;4983068;28;20472;-59
2023/07/02 05:37:45;;;;;;;10.40;6.90;;;15.80;99.90;;;;;;4985137;28;20559;-59
2023/07/02 05:40:13;;;;;;;14.50;7.30;;;15.90;99.90;;;;;;4993689;28;20573;-59
2023/07/02 05:42:45;;;;;;;13.87;7.50;;;15.90;99.90;;;;;;4968100;28;23682;-60
2023/07/02 05:45:13;;;;;;;8.73;6.03;;;15.90;99.90;;;;;;4980672;28;20530;-61
2023/07/02 05:47:41;;;;;;;10.27;6.80;;;16.00;99.90;;;;;;4986534;28;21013;-59
2023/07/02 05:50:09;;;;;;;11.97;7.53;;;15.90;99.90;;;;;;4987096;28;20480;-60
2023/07/02 05:52:37;;;;;;;11.30;7.20;;;15.90;99.90;;;;;;4985517;28;20554;-60
2023/07/02 05:55:10;;;;;;;10.70;6.93;;;16.00;99.90;;;;;;4993071;28;20464;-59
2023/07/02 05:57:38;;;;;;;15.63;7.70;;;16.10;99.90;;;;;;4986854;28;21040;-62
2023/07/02 06:00:07;;;;;;;15.60;7.57;;;16.10;99.90;;;;;;4993399;28;20487;-61
2023/07/02 06:02:35;;;;;;;10.83;7.00;;;16.10;99.90;;;;;;4989205;28;20525;-59
2023/07/02 06:05:04;;;;;;;14.50;7.57;;;16.10;99.90;;;;;;4991344;28;20476;-60
2023/07/02 06:07:32;;;;;;;13.73;8.03;;;16.10;99.90;;;;;;4989300;28;20555;-60
2023/07/02 06:10:00;;;;;;;13.57;7.80;;;16.30;99.90;;;;;;4996634;28;20505;-60
2023/07/02 06:12:29;;;;;;;12.97;7.40;;;16.30;99.90;;;;;;4992583;28;20578;-59
2023/07/02 06:14:57;;;;;;;15.13;7.87;;;16.30;99.90;;;;;;4989252;28;20466;-60
2023/07/02 06:17:25;;;;;;;13.07;7.33;;;16.40;99.90;;;;;;4992424;28;21113;-59
2023/07/02 06:19:53;;;;;;;14.73;7.00;;;16.40;99.90;;;;;;4995290;28;20484;-60
2023/07/02 06:22:21;;;;;;;12.87;7.40;;;16.40;99.90;;;;;;4991124;28;20834;-62
2023/07/02 06:24:49;;;;;;;13.63;7.40;;;16.50;99.90;;;;;;4986091;28;20490;-61
2023/07/02 06:27:17;;;;;;;9.87;7.10;;;16.50;99.90;;;;;;4997513;28;20497;-61
2023/07/02 06:29:47;;;;;;;14.60;8.03;;;16.50;99.90;;;;;;4999368;28;20939;-60
2023/07/02 06:32:15;;;;;;;16.30;7.57;;;16.50;99.90;;;;;;4992665;28;20511;-60
2023/07/02 06:34:43;;;;;;;11.20;7.90;;;16.60;99.90;;;;;;4973354;28;20476;-62
2023/07/02 06:37:11;;;;;;;13.13;7.80;;;16.60;99.90;;;;;;4989017;28;20556;-60
2023/07/02 06:39:39;;;;;;;12.53;7.33;;;16.70;99.90;;;;;;4993759;28;20468;-62
2023/07/02 06:42:07;;;;;;;10.63;7.57;;;16.70;99.90;;;;;;4974091;28;20480;-63
2023/07/02 06:44:35;;;;;;;14.07;7.83;;;16.70;99.90;;;;;;4987554;28;21075;-62
2023/07/02 06:47:04;;;;;;;11.37;6.83;;;16.70;99.90;;;;;;4994114;28;20531;-62
2023/07/02 06:49:32;;;;;;;13.33;7.23;;;16.70;99.90;;;;;;4993275;28;20559;-62
2023/07/02 06:52:01;;;;;;;17.30;8.90;;;16.80;99.90;;;;;;4978367;28;20911;-63
2023/07/02 06:54:29;;;;;;;14.63;8.10;;;16.90;99.90;;;;;;4992222;28;20503;-62
2023/07/02 06:56:57;;;;;;;19.00;7.90;;;17.00;99.90;;;;;;4990281;28;20996;-63
2023/07/02 06:59:25;;;;;;;14.80;8.37;;;17.00;99.90;;;;;;4993759;28;20856;-62
2023/07/02 07:01:53;;;;;;;11.60;7.80;;;17.00;99.90;;;;;;4984871;28;20745;-63
2023/07/02 07:04:23;;;;;;;15.80;8.60;;;17.10;99.90;;;;;;4973788;28;20851;-62
2023/07/02 07:06:51;;;;;;;14.63;8.40;;;17.10;99.90;;;;;;4986072;28;20497;-65
2023/07/02 07:09:19;;;;;;;14.17;8.30;;;17.10;99.90;;;;;;4977331;28;20760;-65
2023/07/02 07:11:47;;;;;;;14.13;8.30;;;17.20;99.90;;;;;;4978408;28;20500;-62
2023/07/02 07:14:15;;;;;;;11.63;8.17;;;17.20;99.90;;;;;;4984504;28;20845;-62
2023/07/02 07:16:43;;;;;;;14.33;8.43;;;17.30;99.90;;;;;;4983190;28;20530;-64
2023/07/02 07:19:11;;;;;;;14.33;7.33;;;17.40;99.90;;;;;;4981536;28;22568;-62
2023/07/02 07:21:40;;;;;;;11.80;7.80;;;17.40;99.90;;;;;;4974362;28;21268;-62
2023/07/02 07:24:08;;;;;;;16.83;7.53;;;17.40;99.90;;;;;;4980352;28;20857;-63
2023/07/02 07:26:37;;;;;;;13.10;8.53;;;17.40;99.90;;;;;;4977077;28;20518;-62
2023/07/02 07:29:05;;;;;;;16.07;8.77;;;17.30;99.90;;;;;;4971710;28;20562;-61
2023/07/02 07:31:33;;;;;;;12.00;7.67;;;17.10;99.90;;;;;;4975371;28;20576;-63
2023/07/02 07:34:01;;;;;;;13.83;7.57;;;17.10;99.90;;;;;;4984626;28;20489;-65
2023/07/02 07:36:29;;;;;;;13.90;7.60;;;17.20;99.90;;;;;;4983051;28;21079;-61
2023/07/02 07:38:58;;;;;;;11.40;7.40;;;17.20;99.90;;;;;;4989780;28;20464;-63
2023/07/02 07:41:27;;;;;;;11.97;7.43;;;17.30;99.90;;;;;;4984466;28;20501;-62
2023/07/02 07:43:55;;;;;;;11.07;7.20;;;17.30;99.90;;;;;;4976095;28;20578;-64
2023/07/02 07:46:23;;;;;;;14.40;7.73;;;17.30;99.90;;;;;;4989576;28;20546;-64
2023/07/02 07:48:52;;;;;;;11.90;8.00;;;17.40;99.90;;;;;;4991791;28;20970;-62
2023/07/02 07:51:20;;;;;;;11.23;7.73;;;17.40;99.90;;;;;;4984179;28;21252;-64
2023/07/02 07:53:48;;;;;;;11.53;7.63;;;17.50;99.90;;;;;;4985296;28;20489;-63
2023/07/02 07:56:17;;;;;;;11.77;7.67;;;17.40;99.90;;;;;;4991945;28;20477;-63
2023/07/02 07:58:45;;;;;;;9.63;7.57;;;17.40;99.90;;;;;;4987863;28;20978;-61
2023/07/02 08:01:13;;;;;;;13.50;8.10;;;17.40;99.90;;;;;;4984891;28;20480;-61
2023/07/02 08:03:41;;;;;;;12.30;7.00;;;17.40;99.90;;;;;;4995689;28;20488;-61
2023/07/02 08:06:09;;;;;;;13.63;6.93;;;17.40;99.90;;;;;;4996211;28;20993;-61
2023/07/02 08:08:37;;;;;;;12.87;6.67;;;17.50;99.90;;;;;;4993856;28;20491;-59
2023/07/02 08:11:05;;;;;;;11.57;7.37;;;17.50;99.90;;;;;;4994879;28;25349;-59
2023/07/02 08:13:35;;;;;;;12.20;7.53;;;17.60;99.90;;;;;;4996832;28;20507;-59
2023/07/02 08:16:03;;;;;;;12.10;7.73;;;17.60;99.90;;;;;;4997380;28;20511;-62
2023/07/02 08:18:31;;;;;;;13.00;7.43;;;17.70;99.90;;;;;;4992496;28;20480;-61
2023/07/02 08:20:59;;;;;;;12.13;7.50;;;17.90;99.90;;;;;;4985629;28;21007;-60
2023/07/02 08:23:27;;;;;;;10.47;7.33;;;18.00;99.90;;;;;;4993281;28;20591;-60
2023/07/02 08:25:55;;;;;;;10.73;6.80;;;18.00;99.90;;;;;;4991105;28;20503;-61
2023/07/02 08:28:23;;;;;;;11.17;6.30;;;18.00;99.90;;;;;;4985984;28;20627;-61
2023/07/02 08:30:52;;;;;;;10.20;5.70;;;17.90;99.90;;;;;;4989670;28;20499;-62
2023/07/02 08:33:20;;;;;;;9.37;6.80;;;17.80;99.90;;;;;;4988608;28;20496;-61
2023/07/02 08:35:48;;;;;;;10.80;6.43;;;17.90;99.90;;;;;;4989372;28;20476;-61
2023/07/02 08:38:16;;;;;;;12.47;6.70;;;17.80;99.90;;;;;;4982474;28;20518;-61
2023/07/02 08:40:44;;;;;;;9.33;6.03;;;17.70;99.90;;;;;;4993265;28;20475;-62
2023/07/02 08:43:12;;;;;;;10.10;6.20;;;17.60;99.90;;;;;;4995574;28;20550;-60
2023/07/02 08:45:42;;;;;;;9.93;6.30;;;17.70;99.90;;;;;;4981153;28;20556;-60
2023/07/02 08:48:12;;;;;;;9.80;5.83;;;17.70;99.90;;;;;;4989690;28;20612;-59
2023/07/02 08:50:40;;;;;;;10.33;6.17;;;17.70;99.90;;;;;;4992867;28;20473;-61
2023/07/02 08:53:08;;;;;;;10.80;5.80;;;17.80;99.90;;;;;;4992447;28;21061;-61
2023/07/02 08:55:36;;;;;;;7.90;5.17;;;17.90;99.90;;;;;;4998042;28;20572;-59
2023/07/02 08:58:04;;;;;;;11.90;6.07;;;18.10;99.90;;;;;;4990394;28;20557;-61
2023/07/02 09:00:36;;;;;;;8.47;5.80;;;18.20;99.90;;;;;;4988568;28;20476;-61
2023/07/02 09:03:15;;;;;;;6.83;5.40;;;18.20;99.90;;;;;;4983550;28;20500;-60
2023/07/02 09:05:51;;;;;;;7.00;5.97;;;18.30;99.90;;;;;;4991044;28;20969;-60
2023/07/02 09:08:25;;;;;;;11.23;5.40;;;18.50;99.90;;;;;;4991309;28;20487;-61
2023/07/02 09:10:53;;;;;;;8.10;5.90;;;18.60;99.90;;;;;;4978916;28;20985;-60
2023/07/02 09:13:21;;;;;;;6.30;5.00;;;18.70;99.90;;;;;;4988863;28;20942;-60
2023/07/02 09:15:49;;;;;;;6.43;4.20;;;18.60;99.90;;;;;;4983452;28;20472;-61
2023/07/02 09:18:20;;;;;;;8.17;4.77;;;18.30;99.90;;;;;;4992950;28;20988;-61
2023/07/02 09:20:51;;;;;;;7.53;4.77;;;18.20;99.90;;;;;;4996722;28;21138;-62
2023/07/02 09:23:19;;;;;;;8.97;5.30;;;18.00;99.90;;;;;;4995450;28;20586;-61
2023/07/02 09:25:47;;;;;;;7.27;4.87;;;17.80;99.90;;;;;;4994686;28;20567;-61
2023/07/02 09:28:17;;;;;;;7.70;4.60;;;17.70;99.90;;;;;;4993901;28;20499;-61
2023/07/02 09:30:53;;;;;;;8.30;4.70;;;17.60;99.90;;;;;;4981771;28;20563;-59
2023/07/02 09:33:24;;;;;;;7.77;5.30;;;17.40;99.90;;;;;;4985587;28;20506;-61
2023/07/02 09:35:53;;;;;;;8.57;5.97;;;17.10;99.90;;;;;;4985179;28;20606;-59
2023/07/02 09:38:21;;;;;;;7.00;5.47;;;16.80;99.90;;;;;;4985665;28;20549;-60
2023/07/02 09:40:51;;;;;;;10.13;5.57;;;16.60;99.90;;;;;;4987972;28;20631;-61
2023/07/02 09:43:20;;;;;;;8.97;5.63;;;16.50;99.90;;;;;;4983850;28;20496;-59
2023/07/02 09:45:50;;;;;;;9.23;5.60;;;16.60;99.90;;;;;;4984552;28;20875;-59
2023/07/02 09:48:20;;;;;;;11.47;6.63;;;16.70;99.90;;;;;;4982609;28;20522;-61
2023/07/02 09:50:51;;;;;;;8.23;5.40;;;16.80;99.90;;;;;;4984064;28;20483;-61
2023/07/02 09:53:19;;;;;;;10.93;5.80;;;16.80;99.90;;;;;;4977369;28;20507;-59
2023/07/02 09:55:48;;;;;;;8.57;5.50;;;16.90;99.90;;;;;;4986498;28;20474;-59
2023/07/02 09:58:17;;;;;;;6.70;5.43;;;17.10;99.90;;;;;;4991581;28;20591;-60
2023/07/02 10:00:45;;;;;;;7.93;4.73;;;17.30;99.90;;;;;;4981730;28;21266;-60
2023/07/02 10:03:13;;;;;;;9.73;5.17;;;17.60;99.90;;;;;;4982288;28;20494;-61
2023/07/02 10:05:41;;;;;;;7.20;4.97;;;17.80;99.90;;;;;;4977089;28;20897;-59
2023/07/02 10:08:17;;;;;;;11.77;4.90;;;17.90;99.90;;;;;;4986470;28;20584;-60
2023/07/02 10:10:45;;;;;;;7.80;4.90;;;18.00;99.90;;;;;;4983157;28;20471;-61
2023/07/02 10:13:14;;;;;;;6.50;4.60;;;18.00;99.90;;;;;;4981350;28;20497;-59
2023/07/02 10:15:42;;;;;;;6.77;4.30;;;18.20;99.90;;;;;;4984794;28;20468;-62
2023/07/02 10:18:10;;;;;;;6.70;4.10;;;18.30;99.90;;;;;;4985060;28;20487;-61
2023/07/02 10:20:40;;;;;;;7.10;4.23;;;18.50;99.90;;;;;;4977578;28;21047;-62
2023/07/02 10:23:09;;;;;;;9.80;4.40;;;18.80;99.90;;;;;;4988201;28;20483;-62
2023/07/02 10:25:39;;;;;;;8.93;4.00;;;18.90;99.90;;;;;;4988275;28;20553;-60
2023/07/02 10:28:19;;;;;;;8.03;4.40;;;18.90;99.90;;;;;;4984807;28;20481;-63
2023/07/02 10:30:47;;;;;;;9.17;4.70;;;19.10;99.90;;;;;;4977410;28;21454;-62
2023/07/02 10:33:16;;;;;;;6.30;4.13;;;19.10;99.90;;;;;;4987938;28;20507;-66
2023/07/02 10:35:47;;;;;;;4.43;3.93;;;19.20;99.90;;;;;;4990736;28;20901;-62
2023/07/02 10:38:15;;;;;;;5.03;4.53;;;19.20;99.90;;;;;;4986954;28;20485;-65
2023/07/02 10:40:45;;;;;;;8.37;4.80;;;19.10;99.90;;;;;;4982449;28;21557;-61
2023/07/02 10:43:14;;;;;;;8.23;4.63;;;18.90;99.90;;;;;;4983022;28;20480;-61
2023/07/02 10:45:42;;;;;;;7.60;4.77;;;18.80;99.90;;;;;;4997132;28;20508;-61
2023/07/02 10:48:10;;;;;;;6.63;4.40;;;18.80;99.90;;;;;;4987472;28;20813;-61
2023/07/02 10:50:39;;;;;;;5.30;4.20;;;18.80;99.90;;;;;;4989452;28;20564;-60
2023/07/02 10:53:07;;;;;;;4.33;3.87;;;18.80;99.90;;;;;;4987016;28;20489;-61
2023/07/02 10:55:34;;;;;;;7.63;4.57;;;19.00;99.90;;;;;;4987901;28;20476;-60
2023/07/02 10:58:08;;;;;;;7.10;4.17;;;19.00;99.90;;;;;;4988687;28;20925;-60
2023/07/02 11:00:45;;;;;;;7.30;4.03;;;19.00;99.90;;;;;;4982522;28;21070;-61
2023/07/02 11:03:20;;;;;;;6.13;3.87;;;18.90;99.90;;;;;;4977930;28;21167;-59
2023/07/02 11:05:48;;;;;;;5.37;4.43;;;18.80;99.90;;;;;;4988726;28;20471;-61
2023/07/02 11:08:18;;;;;;;6.83;3.70;;;18.90;99.90;;;;;;4993928;28;20473;-60
2023/07/02 11:10:46;;;;;;;6.03;3.43;;;18.80;99.90;;;;;;4994614;28;20791;-60
2023/07/02 11:13:16;;;;;;;4.53;3.40;;;18.90;99.90;;;;;;4987342;28;21039;-60
2023/07/02 11:15:46;;;;;;;5.50;4.10;;;19.00;99.90;;;;;;4987168;28;20935;-61
2023/07/02 11:18:16;;;;;;;8.67;4.07;;;19.10;99.90;;;;;;4991082;28;20468;-60
2023/07/02 11:20:46;;;;;;;6.10;4.00;;;19.20;99.90;;;;;;4991121;28;20483;-60
2023/07/02 11:23:21;;;;;;;6.70;4.17;;;19.20;99.90;;;;;;4980474;28;21254;-60
2023/07/02 11:25:58;;;;;;;9.50;4.50;;;19.30;99.90;;;;;;4989021;28;20982;-60
2023/07/02 11:28:28;;;;;;;4.23;3.60;;;19.30;99.90;;;;;;4989683;28;21452;-60
2023/07/02 11:30:57;;;;;;;7.73;4.40;;;19.20;99.90;;;;;;4984803;28;20476;-60
2023/07/02 11:33:35;;;;;;;6.97;3.37;;;19.00;99.90;;;;;;4990179;28;20489;-60
2023/07/02 11:36:03;;;;;;;6.33;3.77;;;19.00;99.90;;;;;;4989785;28;20571;-60
2023/07/02 11:38:31;;;;;;;4.33;3.63;;;19.10;99.90;;;;;;4983319;28;20568;-60
2023/07/02 11:40:59;;;;;;;4.60;3.80;;;19.20;99.90;;;;;;4984626;28;20611;-60
2023/07/02 11:43:28;;;;;;;4.77;3.37;;;19.40;99.90;;;;;;4982864;28;20497;-60
2023/07/02 11:45:57;;;;;;;4.80;3.37;;;19.60;99.90;;;;;;4988850;28;20596;-60
2023/07/02 11:48:24;;;;;;;7.27;3.07;;;19.80;99.90;;;;;;4987310;28;20584;-60
2023/07/02 11:50:53;;;;;;;4.30;3.30;;;19.90;99.90;;;;;;4982714;28;20497;-59
2023/07/02 11:53:20;;;;;;;9.60;3.50;;;20.00;99.90;;;;;;4994472;28;20595;-60
2023/07/02 11:55:49;;;;;;;5.00;3.67;;;20.00;99.90;;;;;;4982292;28;20474;-59
2023/07/02 11:58:17;;;;;;;6.17;3.87;;;19.80;99.90;;;;;;4986836;28;20477;-60
2023/07/02 12:00:46;;;;;;;8.70;3.53;;;19.60;99.90;;;;;;4994996;28;20910;-58
2023/07/02 12:03:14;;;;;;;5.43;3.30;;;19.50;99.90;;;;;;4989784;28;20571;-60
2023/07/02 12:05:42;;;;;;;9.90;3.70;;;19.50;99.90;;;;;;4984451;28;20471;-59
2023/07/02 12:08:10;;;;;;;5.97;3.53;;;19.50;99.90;;;;;;4982785;28;20574;-59
2023/07/02 12:10:38;;;;;;;5.40;3.33;;;19.30;99.90;;;;;;4987715;28;20498;-60
2023/07/02 12:13:06;;;;;;;5.53;3.70;;;19.20;99.90;;;;;;4991683;28;20963;-59
2023/07/02 12:15:34;;;;;;;5.00;3.10;;;19.00;99.90;;;;;;4991003;28;20992;-58
2023/07/02 12:18:04;;;;;;;7.33;3.10;;;19.00;99.90;;;;;;4991749;28;21029;-60
2023/07/02 12:20:32;;;;;;;4.40;3.00;;;19.00;99.90;;;;;;4994724;28;20468;-59
2023/07/02 12:23:00;;;;;;;5.77;3.50;;;19.00;99.90;;;;;;4988669;28;20950;-60
2023/07/02 12:25:28;;;;;;;5.40;3.20;;;19.20;99.90;;;;;;4991795;28;20476;-60
2023/07/02 12:27:56;;;;;;;3.77;3.37;;;19.20;99.90;;;;;;4988253;28;20582;-61
2023/07/02 12:30:24;;;;;;;3.63;3.07;;;19.10;99.90;;;;;;4981238;28;20500;-60
2023/07/02 12:32:52;;;;;;;4.10;3.50;;;19.30;99.90;;;;;;4979788;28;20914;-61
2023/07/02 12:35:21;;;;;;;4.50;2.90;;;19.60;99.90;;;;;;4996341;28;20916;-61
2023/07/02 12:37:51;;;;;;;5.13;3.40;;;19.80;99.90;;;;;;4998123;28;20495;-58
2023/07/02 12:40:20;;;;;;;10.10;3.60;;;19.90;99.90;;;;;;4995340;28;20464;-59
2023/07/02 12:42:49;;;;;;;5.20;3.30;;;20.00;99.90;;;;;;4996696;28;20591;-59
2023/07/02 12:45:17;;;;;;;5.53;3.33;;;20.20;99.90;;;;;;4993038;28;20554;-60
2023/07/02 12:47:48;;;;;;;4.23;3.33;;;20.50;99.90;;;;;;4996980;28;20472;-60
2023/07/02 12:50:17;;;;;;;3.83;2.93;;;20.70;99.90;;;;;;5001359;28;20496;-59